createdAt,value
2022-07-31T00:02:03.846Z,99.90
2022-07-31T00:04:53.241Z,99.90
2022-07-31T00:07:42.457Z,99.90
2022-07-31T00:10:31.590Z,99.90
2022-07-31T00:13:20.316Z,99.90
2022-07-31T00:16:29.117Z,99.90
2022-07-31T00:19:19.970Z,99.90
2022-07-31T00:22:09.460Z,99.90
2022-07-31T00:24:58.221Z,99.90
2022-07-31T00:27:47.274Z,99.90
2022-07-31T00:30:35.976Z,99.90
2022-07-31T00:33:24.437Z,99.90
2022-07-31T00:36:14.873Z,99.90
2022-07-31T00:39:03.595Z,99.90
2022-07-31T00:41:52.405Z,99.90
2022-07-31T00:44:41.913Z,99.90
2022-07-31T00:47:30.694Z,99.90
2022-07-31T00:50:19.524Z,99.90
2022-07-31T00:53:09.913Z,99.90
2022-07-31T00:55:58.740Z,99.90
2022-07-31T00:58:48.357Z,99.90
2022-07-31T01:01:37.472Z,99.90
2022-07-31T01:04:26.543Z,99.90
2022-07-31T01:07:16.001Z,99.80
2022-07-31T01:10:12.415Z,99.60
2022-07-31T01:13:08.548Z,99.80
2022-07-31T01:15:59.732Z,99.70
2022-07-31T01:18:50.395Z,99.60
2022-07-31T01:21:48.924Z,99.50
2022-07-31T01:24:53.880Z,99.70
2022-07-31T01:28:00.664Z,99.70
2022-07-31T01:31:10.612Z,99.80
2022-07-31T01:34:09.839Z,99.90
2022-07-31T01:37:04.238Z,99.90
2022-07-31T01:40:00.944Z,99.80
2022-07-31T01:42:53.846Z,99.60
2022-07-31T14:50:11.988Z,72.50
2022-07-31T14:53:04.306Z,74.00
2022-07-31T14:55:53.392Z,74.50
2022-07-31T14:58:58.471Z,74.20
2022-07-31T15:01:48.147Z,74.00
2022-07-31T15:04:37.682Z,72.80
2022-07-31T15:07:36.661Z,72.30
2022-07-31T15:10:30.198Z,73.30
2022-07-31T15:13:19.220Z,71.50
2022-07-31T15:16:09.497Z,71.80
2022-07-31T15:18:58.603Z,71.40
2022-07-31T15:22:09.904Z,70.80
2022-07-31T15:24:56.133Z,70.20
2022-07-31T15:27:47.814Z,68.20
2022-07-31T15:30:36.877Z,69.40
2022-07-31T15:33:34.884Z,71.00
2022-07-31T15:36:26.707Z,72.30
2022-07-31T15:39:16.332Z,72.50
2022-07-31T15:42:05.353Z,72.10
2022-07-31T15:44:55.624Z,72.10
2022-07-31T15:47:45.781Z,71.90
2022-07-31T15:50:34.978Z,71.90
2022-07-31T15:53:29.787Z,72.20
2022-07-31T15:56:28.756Z,72.00
2022-07-31T15:59:17.251Z,71.10
2022-07-31T16:02:07.908Z,71.20
2022-07-31T16:05:02.634Z,71.80
2022-07-31T16:08:29.095Z,71.80
2022-07-31T16:11:09.818Z,71.70
2022-07-31T16:13:58.810Z,72.00
2022-07-31T16:16:47.738Z,72.50
2022-07-31T16:19:42.087Z,73.20
2022-07-31T16:22:31.191Z,74.10
2022-07-31T16:25:20.631Z,73.70
2022-07-31T16:28:09.384Z,74.00
2022-07-31T16:30:58.132Z,74.30
2022-07-31T16:33:50.771Z,74.90
2022-07-31T16:36:43.640Z,74.20
2022-07-31T16:39:33.198Z,75.20
2022-07-31T16:42:22.285Z,88.30
2022-07-31T16:45:13.378Z,75.50
2022-07-31T16:48:02.464Z,75.30
2022-07-31T16:50:54.424Z,75.60
2022-07-31T16:54:14.326Z,75.70
2022-07-31T16:56:56.315Z,75.40
2022-07-31T16:59:56.956Z,75.90
2022-07-31T17:03:00.813Z,75.90
2022-07-31T17:05:50.316Z,76.00
2022-07-31T17:08:39.654Z,76.50
2022-07-31T17:11:34.458Z,77.20
2022-07-31T17:17:14.002Z,76.30
2022-07-31T17:20:02.733Z,76.80
2022-07-31T17:22:54.587Z,77.10
2022-07-31T17:25:43.389Z,77.10
2022-07-31T17:28:34.335Z,77.60
2022-07-31T17:31:23.372Z,77.50
2022-07-31T17:34:12.380Z,77.30
2022-07-31T17:37:02.145Z,77.70
2022-07-31T17:39:55.124Z,77.70
2022-07-31T17:42:46.872Z,77.50
2022-07-31T17:45:59.852Z,77.40
2022-07-31T17:48:49.752Z,77.60
2022-07-31T17:51:39.185Z,77.10
2022-07-31T17:54:47.719Z,77.10
2022-07-31T17:57:36.737Z,77.40
2022-07-31T18:00:27.123Z,78.00
2022-07-31T18:03:21.500Z,78.40
2022-07-31T18:06:11.034Z,78.80
2022-07-31T18:09:00.778Z,79.10
2022-07-31T18:11:49.809Z,78.90
2022-07-31T18:14:39.161Z,79.20
2022-07-31T18:17:31.515Z,79.30
2022-07-31T18:20:23.168Z,79.90
2022-07-31T18:23:11.905Z,80.00
2022-07-31T18:26:04.225Z,80.70
2022-07-31T18:28:53.282Z,81.70
2022-07-31T18:31:42.471Z,86.10
2022-07-31T18:34:31.367Z,84.60
2022-07-31T18:37:21.742Z,85.80
2022-07-31T18:40:11.074Z,82.50
2022-07-31T18:43:01.412Z,82.80
2022-07-31T18:45:50.426Z,83.10
2022-07-31T18:48:39.746Z,85.70
2022-07-31T18:51:30.571Z,87.50
2022-07-31T18:54:21.291Z,84.80
2022-07-31T18:57:10.416Z,96.90
2022-07-31T18:59:59.859Z,85.30
2022-07-31T19:02:48.985Z,85.30
2022-07-31T19:05:39.167Z,85.50
2022-07-31T19:08:28.302Z,86.00
2022-07-31T19:11:19.282Z,88.00
2022-07-31T19:14:08.744Z,87.00
2022-07-31T19:16:59.973Z,90.30
2022-07-31T19:19:54.318Z,87.00
2022-07-31T19:22:49.583Z,87.20
2022-07-31T19:26:03.072Z,87.50
2022-07-31T19:28:49.823Z,87.60
2022-07-31T19:31:38.979Z,87.50
2022-07-31T19:34:28.260Z,87.30
2022-07-31T19:37:18.048Z,87.50
2022-07-31T19:40:08.839Z,86.90
2022-07-31T19:42:59.876Z,87.20
2022-07-31T19:46:10.433Z,87.60
2022-07-31T19:48:59.773Z,88.10
2022-07-31T19:51:49.090Z,88.60
2022-07-31T19:54:38.326Z,88.70
2022-07-31T19:57:27.424Z,88.80
2022-07-31T20:00:16.981Z,89.20
2022-07-31T20:03:08.066Z,89.50
2022-07-31T20:05:57.709Z,89.70
2022-07-31T20:08:46.791Z,90.00
2022-07-31T20:11:36.043Z,90.10
2022-07-31T20:14:24.983Z,90.40
2022-07-31T20:17:14.025Z,90.40
2022-07-31T20:20:15.642Z,90.30
2022-07-31T20:23:05.280Z,90.20
2022-07-31T20:25:54.372Z,90.40
2022-07-31T20:31:35.269Z,90.40
2022-07-31T20:34:26.049Z,90.80
2022-07-31T20:37:16.333Z,90.80
2022-07-31T20:40:07.253Z,90.80
2022-07-31T20:42:56.262Z,91.00
2022-07-31T20:45:48.063Z,91.20
2022-07-31T20:48:39.644Z,91.40
2022-07-31T20:51:28.629Z,91.60
2022-07-31T20:54:19.233Z,91.80
2022-07-31T20:57:22.689Z,92.00
2022-07-31T21:03:02.251Z,91.90
2022-07-31T21:05:53.277Z,92.00
2022-07-31T21:08:42.713Z,92.00
2022-07-31T21:11:33.271Z,92.00
2022-07-31T21:14:21.946Z,92.00
2022-07-31T21:17:11.402Z,92.00
2022-07-31T21:20:05.593Z,92.20
2022-07-31T21:22:54.764Z,92.20
2022-07-31T21:25:44.610Z,92.20
2022-07-31T21:28:36.228Z,92.30
2022-07-31T21:31:25.864Z,92.30
2022-07-31T21:34:16.934Z,92.30
2022-07-31T21:37:06.563Z,92.40
2022-07-31T21:39:56.792Z,92.40
2022-07-31T21:42:46.478Z,92.40
2022-07-31T21:45:50.879Z,92.40
2022-07-31T21:48:47.566Z,92.50
2022-07-31T21:51:36.830Z,92.50
2022-07-31T21:54:26.079Z,92.60
2022-07-31T21:57:14.908Z,92.80
2022-07-31T22:00:04.109Z,92.80
2022-07-31T22:02:55.701Z,92.80
2022-07-31T22:06:02.466Z,92.70
2022-07-31T22:08:51.576Z,92.60
2022-07-31T22:11:40.208Z,92.70
2022-07-31T22:14:39.095Z,92.70
2022-07-31T22:17:28.183Z,92.80
2022-07-31T22:20:20.168Z,94.80
2022-07-31T22:23:10.366Z,93.10
2022-07-31T22:25:59.945Z,93.10
2022-07-31T22:28:49.554Z,93.20
2022-07-31T22:34:37.283Z,93.20
2022-07-31T22:37:29.182Z,93.10
2022-07-31T22:40:20.693Z,93.10
2022-07-31T22:44:10.389Z,93.00
2022-07-31T22:46:20.233Z,93.00
2022-07-31T22:49:11.088Z,93.00
2022-07-31T22:52:00.140Z,93.20
2022-07-31T22:54:50.518Z,93.10
2022-07-31T22:57:41.123Z,92.70
2022-07-31T23:00:30.037Z,92.60
2022-07-31T23:03:19.140Z,92.70
2022-07-31T23:06:30.798Z,92.70
2022-07-31T23:09:17.893Z,92.60
2022-07-31T23:12:09.999Z,92.70
2022-07-31T23:14:59.082Z,92.80
2022-07-31T23:17:48.203Z,93.10
2022-07-31T23:20:37.745Z,94.60
2022-07-31T23:23:26.888Z,93.50
2022-07-31T23:29:08.054Z,93.30
2022-07-31T23:32:05.694Z,93.70
2022-07-31T23:34:56.635Z,93.80
2022-07-31T23:37:45.727Z,94.00
2022-07-31T23:40:34.881Z,94.00
2022-07-31T23:43:22.978Z,94.10
2022-07-31T23:46:13.599Z,94.10
2022-07-31T23:49:06.056Z,94.20
2022-07-31T23:51:55.125Z,94.20
2022-07-31T23:54:44.640Z,94.20
2022-07-31T23:57:34.813Z,94.20
